sensor_id;sensor_type;location;lat;lon;timestamp;P1;durP1;ratioP1;P2;durP2;ratioP2
58621;SDS011;44389;51.578;5.456;2023-01-23T00:00:31;157.63;;;73.18;;
58621;SDS011;44389;51.578;5.456;2023-01-23T00:02:57;154.13;;;71.28;;
58621;SDS011;44389;51.578;5.456;2023-01-23T00:05:22;158.55;;;71.30;;
58621;SDS011;44389;51.578;5.456;2023-01-23T00:07:47;152.13;;;68.10;;
58621;SDS011;44389;51.578;5.456;2023-01-23T00:10:13;155.32;;;69.72;;
58621;SDS011;44389;51.578;5.456;2023-01-23T00:12:42;157.88;;;68.72;;
58621;SDS011;44389;51.578;5.456;2023-01-23T00:15:09;151.45;;;68.05;;
58621;SDS011;44389;51.578;5.456;2023-01-23T00:17:36;145.88;;;68.28;;
58621;SDS011;44389;51.578;5.456;2023-01-23T00:20:01;151.20;;;68.78;;
58621;SDS011;44389;51.578;5.456;2023-01-23T00:22:28;147.00;;;67.10;;
58621;SDS011;44389;51.578;5.456;2023-01-23T00:24:53;149.43;;;67.63;;
58621;SDS011;44389;51.578;5.456;2023-01-23T00:27:19;143.23;;;66.95;;
58621;SDS011;44389;51.578;5.456;2023-01-23T00:29:44;153.07;;;67.03;;
58621;SDS011;44389;51.578;5.456;2023-01-23T00:32:09;154.50;;;69.80;;
58621;SDS011;44389;51.578;5.456;2023-01-23T00:34:36;150.18;;;67.82;;
58621;SDS011;44389;51.578;5.456;2023-01-23T00:37:01;149.93;;;67.97;;
58621;SDS011;44389;51.578;5.456;2023-01-23T00:39:27;156.48;;;71.35;;
58621;SDS011;44389;51.578;5.456;2023-01-23T00:41:52;150.93;;;72.30;;
58621;SDS011;44389;51.578;5.456;2023-01-23T00:44:17;155.38;;;71.45;;
58621;SDS011;44389;51.578;5.456;2023-01-23T00:46:43;157.30;;;70.35;;
58621;SDS011;44389;51.578;5.456;2023-01-23T00:49:08;96.15;;;25.83;;
58621;SDS011;44389;51.578;5.456;2023-01-23T00:51:34;151.00;;;68.85;;
58621;SDS011;44389;51.578;5.456;2023-01-23T00:53:59;142.30;;;66.60;;
58621;SDS011;44389;51.578;5.456;2023-01-23T00:56:25;155.18;;;67.63;;
58621;SDS011;44389;51.578;5.456;2023-01-23T00:58:50;145.35;;;67.50;;
58621;SDS011;44389;51.578;5.456;2023-01-23T01:01:16;150.57;;;68.80;;
58621;SDS011;44389;51.578;5.456;2023-01-23T01:03:42;154.73;;;66.70;;
58621;SDS011;44389;51.578;5.456;2023-01-23T01:06:08;150.73;;;67.07;;
58621;SDS011;44389;51.578;5.456;2023-01-23T01:08:34;145.48;;;67.60;;
58621;SDS011;44389;51.578;5.456;2023-01-23T01:11:00;145.48;;;65.53;;
58621;SDS011;44389;51.578;5.456;2023-01-23T01:13:25;145.60;;;64.25;;
58621;SDS011;44389;51.578;5.456;2023-01-23T01:15:51;132.30;;;62.97;;
58621;SDS011;44389;51.578;5.456;2023-01-23T01:18:17;153.50;;;66.10;;
58621;SDS011;44389;51.578;5.456;2023-01-23T01:20:44;139.73;;;66.78;;
58621;SDS011;44389;51.578;5.456;2023-01-23T01:23:10;146.82;;;67.28;;
58621;SDS011;44389;51.578;5.456;2023-01-23T01:25:36;141.85;;;65.97;;
58621;SDS011;44389;51.578;5.456;2023-01-23T01:28:01;142.05;;;64.50;;
58621;SDS011;44389;51.578;5.456;2023-01-23T01:30:27;136.07;;;66.93;;
58621;SDS011;44389;51.578;5.456;2023-01-23T01:32:54;136.40;;;65.53;;
58621;SDS011;44389;51.578;5.456;2023-01-23T01:35:20;144.57;;;64.60;;
58621;SDS011;44389;51.578;5.456;2023-01-23T01:37:45;135.98;;;64.93;;
58621;SDS011;44389;51.578;5.456;2023-01-23T01:40:15;135.73;;;64.28;;
58621;SDS011;44389;51.578;5.456;2023-01-23T01:42:43;141.02;;;64.18;;
58621;SDS011;44389;51.578;5.456;2023-01-23T01:48:15;144.82;;;66.15;;
58621;SDS011;44389;51.578;5.456;2023-01-23T01:50:42;138.88;;;65.55;;
58621;SDS011;44389;51.578;5.456;2023-01-23T01:53:08;141.20;;;64.55;;
58621;SDS011;44389;51.578;5.456;2023-01-23T01:55:34;144.80;;;67.78;;
58621;SDS011;44389;51.578;5.456;2023-01-23T01:58:00;136.10;;;62.63;;
58621;SDS011;44389;51.578;5.456;2023-01-23T02:00:25;151.88;;;66.07;;
58621;SDS011;44389;51.578;5.456;2023-01-23T02:05:55;141.77;;;65.30;;
58621;SDS011;44389;51.578;5.456;2023-01-23T02:11:04;142.77;;;64.22;;
58621;SDS011;44389;51.578;5.456;2023-01-23T02:13:33;147.75;;;66.60;;
58621;SDS011;44389;51.578;5.456;2023-01-23T02:16:02;144.73;;;66.50;;
58621;SDS011;44389;51.578;5.456;2023-01-23T02:18:32;139.57;;;64.30;;
58621;SDS011;44389;51.578;5.456;2023-01-23T02:21:00;152.82;;;66.28;;
58621;SDS011;44389;51.578;5.456;2023-01-23T02:26:17;144.48;;;65.22;;
58621;SDS011;44389;51.578;5.456;2023-01-23T02:28:47;155.60;;;67.43;;
58621;SDS011;44389;51.578;5.456;2023-01-23T02:31:15;146.85;;;66.45;;
58621;SDS011;44389;51.578;5.456;2023-01-23T02:36:09;143.88;;;66.00;;
58621;SDS011;44389;51.578;5.456;2023-01-23T02:38:36;150.40;;;68.88;;
58621;SDS011;44389;51.578;5.456;2023-01-23T02:41:06;147.90;;;66.20;;
58621;SDS011;44389;51.578;5.456;2023-01-23T02:43:34;154.73;;;69.47;;
58621;SDS011;44389;51.578;5.456;2023-01-23T02:46:05;147.38;;;68.85;;
58621;SDS011;44389;51.578;5.456;2023-01-23T02:48:32;150.57;;;68.55;;
58621;SDS011;44389;51.578;5.456;2023-01-23T02:50:57;150.68;;;68.93;;
58621;SDS011;44389;51.578;5.456;2023-01-23T02:53:23;146.60;;;68.22;;
58621;SDS011;44389;51.578;5.456;2023-01-23T02:55:49;154.90;;;68.88;;
58621;SDS011;44389;51.578;5.456;2023-01-23T02:58:15;157.98;;;70.60;;
58621;SDS011;44389;51.578;5.456;2023-01-23T03:00:58;158.13;;;69.57;;
58621;SDS011;44389;51.578;5.456;2023-01-23T03:03:24;161.32;;;70.88;;
58621;SDS011;44389;51.578;5.456;2023-01-23T03:05:49;156.57;;;68.78;;
58621;SDS011;44389;51.578;5.456;2023-01-23T03:08:15;156.55;;;67.63;;
58621;SDS011;44389;51.578;5.456;2023-01-23T03:10:40;152.50;;;68.28;;
58621;SDS011;44389;51.578;5.456;2023-01-23T03:13:06;157.07;;;67.90;;
58621;SDS011;44389;51.578;5.456;2023-01-23T03:15:33;157.27;;;68.13;;
58621;SDS011;44389;51.578;5.456;2023-01-23T03:18:02;157.05;;;68.10;;
58621;SDS011;44389;51.578;5.456;2023-01-23T03:20:27;162.65;;;71.32;;
58621;SDS011;44389;51.578;5.456;2023-01-23T03:22:53;156.30;;;69.18;;
58621;SDS011;44389;51.578;5.456;2023-01-23T03:25:18;160.75;;;72.10;;
58621;SDS011;44389;51.578;5.456;2023-01-23T03:27:44;149.55;;;66.63;;
58621;SDS011;44389;51.578;5.456;2023-01-23T03:30:11;169.13;;;73.78;;
58621;SDS011;44389;51.578;5.456;2023-01-23T03:32:37;160.50;;;70.82;;
58621;SDS011;44389;51.578;5.456;2023-01-23T03:35:03;157.85;;;71.32;;
58621;SDS011;44389;51.578;5.456;2023-01-23T03:37:30;165.00;;;70.00;;
58621;SDS011;44389;51.578;5.456;2023-01-23T03:39:55;168.80;;;72.15;;
58621;SDS011;44389;51.578;5.456;2023-01-23T03:42:39;155.55;;;70.63;;
58621;SDS011;44389;51.578;5.456;2023-01-23T03:45:05;160.68;;;72.47;;
58621;SDS011;44389;51.578;5.456;2023-01-23T03:47:31;163.32;;;71.85;;
58621;SDS011;44389;51.578;5.456;2023-01-23T03:49:56;165.93;;;70.22;;
58621;SDS011;44389;51.578;5.456;2023-01-23T03:52:22;166.77;;;71.80;;
58621;SDS011;44389;51.578;5.456;2023-01-23T03:54:48;156.82;;;70.32;;
58621;SDS011;44389;51.578;5.456;2023-01-23T03:57:13;157.82;;;69.68;;
58621;SDS011;44389;51.578;5.456;2023-01-23T03:59:38;163.23;;;70.82;;
58621;SDS011;44389;51.578;5.456;2023-01-23T04:02:04;158.80;;;71.10;;
58621;SDS011;44389;51.578;5.456;2023-01-23T04:04:30;174.65;;;75.10;;
58621;SDS011;44389;51.578;5.456;2023-01-23T04:06:56;158.38;;;69.18;;
58621;SDS011;44389;51.578;5.456;2023-01-23T04:09:21;174.48;;;72.88;;
58621;SDS011;44389;51.578;5.456;2023-01-23T04:11:51;160.18;;;71.70;;
58621;SDS011;44389;51.578;5.456;2023-01-23T04:14:17;172.52;;;73.32;;
58621;SDS011;44389;51.578;5.456;2023-01-23T04:16:43;169.63;;;71.72;;
58621;SDS011;44389;51.578;5.456;2023-01-23T04:19:08;89.78;;;25.23;;
58621;SDS011;44389;51.578;5.456;2023-01-23T04:21:33;172.93;;;71.82;;
58621;SDS011;44389;51.578;5.456;2023-01-23T04:23:58;178.95;;;73.38;;
58621;SDS011;44389;51.578;5.456;2023-01-23T04:26:24;174.20;;;72.53;;
58621;SDS011;44389;51.578;5.456;2023-01-23T04:28:49;173.77;;;73.47;;
58621;SDS011;44389;51.578;5.456;2023-01-23T04:31:14;182.20;;;74.45;;
58621;SDS011;44389;51.578;5.456;2023-01-23T04:33:40;179.45;;;74.80;;
58621;SDS011;44389;51.578;5.456;2023-01-23T04:36:05;175.18;;;74.47;;
58621;SDS011;44389;51.578;5.456;2023-01-23T04:38:31;178.90;;;74.57;;
58621;SDS011;44389;51.578;5.456;2023-01-23T04:40:57;179.27;;;75.20;;
58621;SDS011;44389;51.578;5.456;2023-01-23T04:43:24;178.57;;;71.30;;
58621;SDS011;44389;51.578;5.456;2023-01-23T04:45:51;165.82;;;72.13;;
58621;SDS011;44389;51.578;5.456;2023-01-23T04:48:17;174.10;;;73.63;;
58621;SDS011;44389;51.578;5.456;2023-01-23T04:50:43;175.57;;;73.82;;
58621;SDS011;44389;51.578;5.456;2023-01-23T04:53:08;177.98;;;76.22;;
58621;SDS011;44389;51.578;5.456;2023-01-23T04:55:34;168.57;;;74.80;;
58621;SDS011;44389;51.578;5.456;2023-01-23T04:57:59;164.43;;;73.28;;
58621;SDS011;44389;51.578;5.456;2023-01-23T05:00:26;181.32;;;74.82;;
58621;SDS011;44389;51.578;5.456;2023-01-23T05:02:53;174.32;;;74.70;;
58621;SDS011;44389;51.578;5.456;2023-01-23T05:05:19;179.13;;;75.53;;
58621;SDS011;44389;51.578;5.456;2023-01-23T05:10:12;172.27;;;71.47;;
58621;SDS011;44389;51.578;5.456;2023-01-23T05:12:38;187.30;;;75.35;;
58621;SDS011;44389;51.578;5.456;2023-01-23T05:15:04;176.07;;;72.68;;
58621;SDS011;44389;51.578;5.456;2023-01-23T05:17:30;190.52;;;75.70;;
58621;SDS011;44389;51.578;5.456;2023-01-23T05:19:56;175.65;;;75.25;;
58621;SDS011;44389;51.578;5.456;2023-01-23T05:22:21;177.60;;;74.45;;
58621;SDS011;44389;51.578;5.456;2023-01-23T05:24:47;175.10;;;74.45;;
58621;SDS011;44389;51.578;5.456;2023-01-23T05:27:12;173.60;;;74.53;;
58621;SDS011;44389;51.578;5.456;2023-01-23T05:29:37;174.85;;;74.57;;
58621;SDS011;44389;51.578;5.456;2023-01-23T05:32:03;177.38;;;75.18;;
58621;SDS011;44389;51.578;5.456;2023-01-23T05:34:28;179.05;;;77.55;;
58621;SDS011;44389;51.578;5.456;2023-01-23T05:36:54;179.10;;;75.85;;
58621;SDS011;44389;51.578;5.456;2023-01-23T05:39:19;174.05;;;76.60;;
58621;SDS011;44389;51.578;5.456;2023-01-23T05:41:44;191.20;;;77.53;;
58621;SDS011;44389;51.578;5.456;2023-01-23T05:44:10;182.93;;;77.07;;
58621;SDS011;44389;51.578;5.456;2023-01-23T05:46:35;184.85;;;79.53;;
58621;SDS011;44389;51.578;5.456;2023-01-23T05:49:00;186.88;;;77.30;;
58621;SDS011;44389;51.578;5.456;2023-01-23T05:51:25;178.73;;;74.47;;
58621;SDS011;44389;51.578;5.456;2023-01-23T05:53:56;172.73;;;75.72;;
58621;SDS011;44389;51.578;5.456;2023-01-23T05:56:22;188.95;;;79.97;;
58621;SDS011;44389;51.578;5.456;2023-01-23T05:58:48;182.27;;;76.97;;
58621;SDS011;44389;51.578;5.456;2023-01-23T06:01:13;185.80;;;78.80;;
58621;SDS011;44389;51.578;5.456;2023-01-23T06:03:38;180.88;;;76.60;;
58621;SDS011;44389;51.578;5.456;2023-01-23T06:06:04;183.25;;;78.53;;
58621;SDS011;44389;51.578;5.456;2023-01-23T06:08:29;179.25;;;77.30;;
58621;SDS011;44389;51.578;5.456;2023-01-23T06:10:56;173.65;;;77.90;;
58621;SDS011;44389;51.578;5.456;2023-01-23T06:13:23;175.48;;;73.07;;
58621;SDS011;44389;51.578;5.456;2023-01-23T06:15:49;167.27;;;73.25;;
58621;SDS011;44389;51.578;5.456;2023-01-23T06:18:14;171.73;;;75.20;;
58621;SDS011;44389;51.578;5.456;2023-01-23T06:20:39;159.85;;;72.65;;
58621;SDS011;44389;51.578;5.456;2023-01-23T06:23:05;168.60;;;74.45;;
58621;SDS011;44389;51.578;5.456;2023-01-23T06:25:30;170.68;;;72.35;;
58621;SDS011;44389;51.578;5.456;2023-01-23T06:27:55;173.68;;;73.10;;
58621;SDS011;44389;51.578;5.456;2023-01-23T06:30:21;166.07;;;74.10;;
58621;SDS011;44389;51.578;5.456;2023-01-23T06:32:46;164.60;;;74.35;;
58621;SDS011;44389;51.578;5.456;2023-01-23T06:35:11;166.93;;;74.30;;
58621;SDS011;44389;51.578;5.456;2023-01-23T06:37:36;176.18;;;74.32;;
58621;SDS011;44389;51.578;5.456;2023-01-23T06:40:02;166.32;;;72.68;;
58621;SDS011;44389;51.578;5.456;2023-01-23T06:42:28;161.07;;;70.38;;
58621;SDS011;44389;51.578;5.456;2023-01-23T06:44:53;162.43;;;74.60;;
58621;SDS011;44389;51.578;5.456;2023-01-23T06:47:18;169.85;;;74.05;;
58621;SDS011;44389;51.578;5.456;2023-01-23T06:49:44;158.77;;;70.93;;
58621;SDS011;44389;51.578;5.456;2023-01-23T06:52:09;163.30;;;73.20;;
58621;SDS011;44389;51.578;5.456;2023-01-23T06:54:35;159.68;;;72.93;;
58621;SDS011;44389;51.578;5.456;2023-01-23T06:57:00;159.27;;;71.78;;
58621;SDS011;44389;51.578;5.456;2023-01-23T06:59:25;165.15;;;70.10;;
58621;SDS011;44389;51.578;5.456;2023-01-23T07:01:50;157.82;;;67.20;;
58621;SDS011;44389;51.578;5.456;2023-01-23T07:04:16;153.77;;;70.25;;
58621;SDS011;44389;51.578;5.456;2023-01-23T07:06:41;150.10;;;66.60;;
58621;SDS011;44389;51.578;5.456;2023-01-23T07:09:06;155.60;;;68.72;;
58621;SDS011;44389;51.578;5.456;2023-01-23T07:11:32;147.68;;;69.55;;
58621;SDS011;44389;51.578;5.456;2023-01-23T07:13:57;144.18;;;66.70;;
58621;SDS011;44389;51.578;5.456;2023-01-23T07:16:22;161.63;;;72.80;;
58621;SDS011;44389;51.578;5.456;2023-01-23T07:18:49;143.52;;;67.63;;
58621;SDS011;44389;51.578;5.456;2023-01-23T07:21:14;147.85;;;70.55;;
58621;SDS011;44389;51.578;5.456;2023-01-23T07:23:39;159.75;;;72.15;;
58621;SDS011;44389;51.578;5.456;2023-01-23T07:26:05;142.43;;;67.82;;
58621;SDS011;44389;51.578;5.456;2023-01-23T07:28:37;143.48;;;68.13;;
58621;SDS011;44389;51.578;5.456;2023-01-23T07:31:03;144.15;;;68.38;;
58621;SDS011;44389;51.578;5.456;2023-01-23T07:33:28;140.00;;;67.97;;
58621;SDS011;44389;51.578;5.456;2023-01-23T07:35:54;140.35;;;68.30;;
58621;SDS011;44389;51.578;5.456;2023-01-23T07:38:19;152.20;;;68.75;;
58621;SDS011;44389;51.578;5.456;2023-01-23T07:43:12;151.32;;;70.78;;
58621;SDS011;44389;51.578;5.456;2023-01-23T07:45:37;141.43;;;66.88;;
58621;SDS011;44389;51.578;5.456;2023-01-23T07:48:03;150.57;;;68.70;;
58621;SDS011;44389;51.578;5.456;2023-01-23T07:50:28;138.75;;;67.30;;
58621;SDS011;44389;51.578;5.456;2023-01-23T07:52:54;137.77;;;67.30;;
58621;SDS011;44389;51.578;5.456;2023-01-23T07:55:19;138.68;;;65.90;;
58621;SDS011;44389;51.578;5.456;2023-01-23T07:57:44;141.55;;;68.93;;
58621;SDS011;44389;51.578;5.456;2023-01-23T08:00:10;143.93;;;67.95;;
58621;SDS011;44389;51.578;5.456;2023-01-23T08:02:36;137.45;;;66.53;;
58621;SDS011;44389;51.578;5.456;2023-01-23T08:05:02;137.15;;;65.85;;
58621;SDS011;44389;51.578;5.456;2023-01-23T08:07:27;131.30;;;66.50;;
58621;SDS011;44389;51.578;5.456;2023-01-23T08:09:53;139.27;;;69.88;;
58621;SDS011;44389;51.578;5.456;2023-01-23T08:12:18;135.93;;;66.00;;
58621;SDS011;44389;51.578;5.456;2023-01-23T08:14:43;128.05;;;63.28;;
58621;SDS011;44389;51.578;5.456;2023-01-23T08:17:08;136.80;;;65.93;;
58621;SDS011;44389;51.578;5.456;2023-01-23T08:19:34;126.93;;;64.13;;
58621;SDS011;44389;51.578;5.456;2023-01-23T08:21:59;129.88;;;67.65;;
58621;SDS011;44389;51.578;5.456;2023-01-23T08:24:24;130.15;;;65.03;;
58621;SDS011;44389;51.578;5.456;2023-01-23T08:26:50;126.30;;;65.18;;
58621;SDS011;44389;51.578;5.456;2023-01-23T08:29:15;122.00;;;61.38;;
58621;SDS011;44389;51.578;5.456;2023-01-23T08:31:40;130.45;;;63.65;;
58621;SDS011;44389;51.578;5.456;2023-01-23T08:34:06;122.07;;;63.42;;
58621;SDS011;44389;51.578;5.456;2023-01-23T08:36:31;127.75;;;63.65;;
58621;SDS011;44389;51.578;5.456;2023-01-23T08:38:56;128.50;;;63.50;;
58621;SDS011;44389;51.578;5.456;2023-01-23T08:41:22;124.00;;;62.72;;
58621;SDS011;44389;51.578;5.456;2023-01-23T08:43:48;127.05;;;63.60;;
58621;SDS011;44389;51.578;5.456;2023-01-23T08:46:13;120.47;;;62.38;;
58621;SDS011;44389;51.578;5.456;2023-01-23T08:48:39;121.50;;;62.15;;
58621;SDS011;44389;51.578;5.456;2023-01-23T08:51:06;116.97;;;61.85;;
58621;SDS011;44389;51.578;5.456;2023-01-23T08:53:34;118.50;;;59.53;;
58621;SDS011;44389;51.578;5.456;2023-01-23T08:56:00;116.00;;;59.78;;
58621;SDS011;44389;51.578;5.456;2023-01-23T08:58:27;109.90;;;58.63;;
58621;SDS011;44389;51.578;5.456;2023-01-23T09:00:53;113.75;;;58.75;;
58621;SDS011;44389;51.578;5.456;2023-01-23T09:03:18;109.25;;;57.15;;
58621;SDS011;44389;51.578;5.456;2023-01-23T09:05:44;119.43;;;58.75;;
58621;SDS011;44389;51.578;5.456;2023-01-23T09:08:09;106.55;;;55.17;;
58621;SDS011;44389;51.578;5.456;2023-01-23T09:10:34;107.45;;;56.42;;
58621;SDS011;44389;51.578;5.456;2023-01-23T09:13:00;112.07;;;54.85;;
58621;SDS011;44389;51.578;5.456;2023-01-23T09:15:25;107.18;;;55.80;;
58621;SDS011;44389;51.578;5.456;2023-01-23T09:17:51;106.10;;;53.70;;
58621;SDS011;44389;51.578;5.456;2023-01-23T09:20:16;95.68;;;51.70;;
58621;SDS011;44389;51.578;5.456;2023-01-23T09:22:41;91.47;;;49.80;;
58621;SDS011;44389;51.578;5.456;2023-01-23T09:25:07;102.13;;;53.38;;
58621;SDS011;44389;51.578;5.456;2023-01-23T09:27:32;98.63;;;50.70;;
58621;SDS011;44389;51.578;5.456;2023-01-23T09:29:58;101.57;;;50.00;;
58621;SDS011;44389;51.578;5.456;2023-01-23T09:32:23;94.95;;;49.72;;
58621;SDS011;44389;51.578;5.456;2023-01-23T09:34:48;87.68;;;49.50;;
58621;SDS011;44389;51.578;5.456;2023-01-23T09:37:14;92.85;;;50.17;;
58621;SDS011;44389;51.578;5.456;2023-01-23T09:39:43;99.18;;;50.58;;
58621;SDS011;44389;51.578;5.456;2023-01-23T09:42:13;95.45;;;50.33;;
58621;SDS011;44389;51.578;5.456;2023-01-23T09:44:44;94.03;;;50.97;;
58621;SDS011;44389;51.578;5.456;2023-01-23T09:47:16;96.35;;;49.05;;
58621;SDS011;44389;51.578;5.456;2023-01-23T09:49:48;92.32;;;49.50;;
58621;SDS011;44389;51.578;5.456;2023-01-23T09:52:23;87.13;;;48.85;;
58621;SDS011;44389;51.578;5.456;2023-01-23T09:55:00;92.30;;;48.63;;
58621;SDS011;44389;51.578;5.456;2023-01-23T09:57:45;89.37;;;46.83;;
58621;SDS011;44389;51.578;5.456;2023-01-23T10:02:56;94.53;;;48.40;;
58621;SDS011;44389;51.578;5.456;2023-01-23T10:05:31;84.60;;;47.47;;
58621;SDS011;44389;51.578;5.456;2023-01-23T10:13:31;82.90;;;46.28;;
58621;SDS011;44389;51.578;5.456;2023-01-23T10:18:43;83.90;;;47.20;;
58621;SDS011;44389;51.578;5.456;2023-01-23T10:26:58;82.35;;;46.42;;
58621;SDS011;44389;51.578;5.456;2023-01-23T10:29:37;85.40;;;46.08;;
58621;SDS011;44389;51.578;5.456;2023-01-23T10:37:52;80.95;;;45.72;;
58621;SDS011;44389;51.578;5.456;2023-01-23T10:40:15;79.20;;;44.22;;
58621;SDS011;44389;51.578;5.456;2023-01-23T10:43:02;79.90;;;44.13;;
58621;SDS011;44389;51.578;5.456;2023-01-23T10:45:34;75.82;;;44.50;;
58621;SDS011;44389;51.578;5.456;2023-01-23T10:48:00;79.75;;;46.22;;
58621;SDS011;44389;51.578;5.456;2023-01-23T10:50:35;72.38;;;43.15;;
58621;SDS011;44389;51.578;5.456;2023-01-23T10:53:07;79.30;;;45.30;;
58621;SDS011;44389;51.578;5.456;2023-01-23T10:55:43;78.90;;;43.88;;
58621;SDS011;44389;51.578;5.456;2023-01-23T10:58:18;77.05;;;44.75;;
58621;SDS011;44389;51.578;5.456;2023-01-23T11:00:56;71.07;;;42.03;;
58621;SDS011;44389;51.578;5.456;2023-01-23T11:03:26;78.45;;;43.67;;
58621;SDS011;44389;51.578;5.456;2023-01-23T11:06:00;76.80;;;43.60;;
58621;SDS011;44389;51.578;5.456;2023-01-23T11:08:34;75.65;;;43.13;;
58621;SDS011;44389;51.578;5.456;2023-01-23T11:13:39;78.63;;;43.90;;
58621;SDS011;44389;51.578;5.456;2023-01-23T11:16:06;69.65;;;41.08;;
58621;SDS011;44389;51.578;5.456;2023-01-23T11:18:41;72.78;;;43.58;;
58621;SDS011;44389;51.578;5.456;2023-01-23T11:21:27;70.13;;;43.10;;
58621;SDS011;44389;51.578;5.456;2023-01-23T11:26:59;75.03;;;42.35;;
58621;SDS011;44389;51.578;5.456;2023-01-23T11:29:54;73.05;;;41.72;;
58621;SDS011;44389;51.578;5.456;2023-01-23T11:32:38;71.03;;;40.08;;
58621;SDS011;44389;51.578;5.456;2023-01-23T11:35:13;67.47;;;39.63;;
58621;SDS011;44389;51.578;5.456;2023-01-23T11:37:43;70.90;;;41.33;;
58621;SDS011;44389;51.578;5.456;2023-01-23T11:40:12;63.40;;;38.75;;
58621;SDS011;44389;51.578;5.456;2023-01-23T11:42:42;65.55;;;39.33;;
58621;SDS011;44389;51.578;5.456;2023-01-23T11:50:48;63.67;;;38.13;;
58621;SDS011;44389;51.578;5.456;2023-01-23T12:02:04;58.88;;;36.75;;
58621;SDS011;44389;51.578;5.456;2023-01-23T12:07:24;65.28;;;38.25;;
58621;SDS011;44389;51.578;5.456;2023-01-23T12:15:43;59.50;;;35.10;;
58621;SDS011;44389;51.578;5.456;2023-01-23T12:18:16;59.35;;;36.40;;
58621;SDS011;44389;51.578;5.456;2023-01-23T12:21:08;63.75;;;38.15;;
58621;SDS011;44389;51.578;5.456;2023-01-23T12:24:08;58.60;;;36.63;;
58621;SDS011;44389;51.578;5.456;2023-01-23T12:26:38;65.25;;;38.53;;
58621;SDS011;44389;51.578;5.456;2023-01-23T12:29:29;65.47;;;37.75;;
58621;SDS011;44389;51.578;5.456;2023-01-23T12:35:46;57.65;;;35.83;;
58621;SDS011;44389;51.578;5.456;2023-01-23T12:41:07;62.30;;;36.80;;
58621;SDS011;44389;51.578;5.456;2023-01-23T12:46:16;58.78;;;35.38;;
58621;SDS011;44389;51.578;5.456;2023-01-23T12:49:05;61.40;;;36.33;;
58621;SDS011;44389;51.578;5.456;2023-01-23T12:51:46;62.33;;;36.35;;
58621;SDS011;44389;51.578;5.456;2023-01-23T12:54:19;64.18;;;37.20;;
58621;SDS011;44389;51.578;5.456;2023-01-23T12:56:53;61.67;;;36.28;;
58621;SDS011;44389;51.578;5.456;2023-01-23T12:59:35;65.78;;;37.00;;
58621;SDS011;44389;51.578;5.456;2023-01-23T13:02:32;62.83;;;37.05;;
58621;SDS011;44389;51.578;5.456;2023-01-23T13:05:50;64.38;;;36.53;;
58621;SDS011;44389;51.578;5.456;2023-01-23T13:08:00;61.90;;;36.42;;
58621;SDS011;44389;51.578;5.456;2023-01-23T13:13:57;69.65;;;38.78;;
58621;SDS011;44389;51.578;5.456;2023-01-23T13:16:26;67.20;;;38.83;;
58621;SDS011;44389;51.578;5.456;2023-01-23T13:18:54;67.75;;;38.72;;
58621;SDS011;44389;51.578;5.456;2023-01-23T13:21:39;66.32;;;38.40;;
58621;SDS011;44389;51.578;5.456;2023-01-23T13:29:57;62.97;;;37.70;;
58621;SDS011;44389;51.578;5.456;2023-01-23T13:32:23;64.22;;;36.30;;
58621;SDS011;44389;51.578;5.456;2023-01-23T13:34:53;61.20;;;36.88;;
58621;SDS011;44389;51.578;5.456;2023-01-23T13:40:14;64.65;;;36.03;;
58621;SDS011;44389;51.578;5.456;2023-01-23T13:42:40;63.53;;;37.58;;
58621;SDS011;44389;51.578;5.456;2023-01-23T13:47:40;62.08;;;36.92;;
58621;SDS011;44389;51.578;5.456;2023-01-23T13:50:34;70.32;;;40.10;;
58621;SDS011;44389;51.578;5.456;2023-01-23T13:53:10;70.30;;;41.45;;
58621;SDS011;44389;51.578;5.456;2023-01-23T13:56:00;73.32;;;41.38;;
58621;SDS011;44389;51.578;5.456;2023-01-23T13:58:45;69.50;;;42.03;;
58621;SDS011;44389;51.578;5.456;2023-01-23T14:01:14;76.60;;;41.97;;
58621;SDS011;44389;51.578;5.456;2023-01-23T14:04:05;73.40;;;42.45;;
58621;SDS011;44389;51.578;5.456;2023-01-23T14:06:56;77.50;;;41.60;;
58621;SDS011;44389;51.578;5.456;2023-01-23T14:09:23;69.82;;;41.03;;
58621;SDS011;44389;51.578;5.456;2023-01-23T14:11:56;70.60;;;41.55;;
58621;SDS011;44389;51.578;5.456;2023-01-23T14:14:22;68.38;;;41.88;;
58621;SDS011;44389;51.578;5.456;2023-01-23T14:17:06;74.85;;;42.22;;
58621;SDS011;44389;51.578;5.456;2023-01-23T14:19:33;72.65;;;41.65;;
58621;SDS011;44389;51.578;5.456;2023-01-23T14:22:04;72.40;;;41.47;;
58621;SDS011;44389;51.578;5.456;2023-01-23T14:27:18;71.95;;;41.33;;
58621;SDS011;44389;51.578;5.456;2023-01-23T14:32:32;68.53;;;41.80;;
58621;SDS011;44389;51.578;5.456;2023-01-23T14:34:58;65.22;;;39.15;;
58621;SDS011;44389;51.578;5.456;2023-01-23T14:37:24;77.57;;;41.83;;
58621;SDS011;44389;51.578;5.456;2023-01-23T14:42:20;71.47;;;41.28;;
58621;SDS011;44389;51.578;5.456;2023-01-23T14:44:49;67.30;;;39.33;;
58621;SDS011;44389;51.578;5.456;2023-01-23T14:50:17;75.35;;;41.35;;
58621;SDS011;44389;51.578;5.456;2023-01-23T14:52:47;68.10;;;39.28;;
58621;SDS011;44389;51.578;5.456;2023-01-23T14:55:22;68.55;;;39.47;;
58621;SDS011;44389;51.578;5.456;2023-01-23T14:57:50;64.32;;;39.38;;
58621;SDS011;44389;51.578;5.456;2023-01-23T15:00:17;64.03;;;39.25;;
58621;SDS011;44389;51.578;5.456;2023-01-23T15:02:44;67.90;;;39.80;;
58621;SDS011;44389;51.578;5.456;2023-01-23T15:10:33;67.72;;;39.60;;
58621;SDS011;44389;51.578;5.456;2023-01-23T15:13:19;65.95;;;39.83;;
58621;SDS011;44389;51.578;5.456;2023-01-23T15:15:50;64.00;;;37.60;;
58621;SDS011;44389;51.578;5.456;2023-01-23T15:18:21;62.38;;;36.47;;
58621;SDS011;44389;51.578;5.456;2023-01-23T15:21:06;64.32;;;38.15;;
58621;SDS011;44389;51.578;5.456;2023-01-23T15:23:39;64.90;;;39.05;;
58621;SDS011;44389;51.578;5.456;2023-01-23T15:28:49;64.28;;;39.25;;
58621;SDS011;44389;51.578;5.456;2023-01-23T15:31:32;65.18;;;39.55;;
58621;SDS011;44389;51.578;5.456;2023-01-23T15:39:20;63.28;;;37.47;;
58621;SDS011;44389;51.578;5.456;2023-01-23T15:41:50;57.58;;;36.15;;
58621;SDS011;44389;51.578;5.456;2023-01-23T15:44:18;60.47;;;38.17;;
58621;SDS011;44389;51.578;5.456;2023-01-23T15:46:44;61.97;;;38.13;;
58621;SDS011;44389;51.578;5.456;2023-01-23T15:49:10;61.63;;;38.17;;
58621;SDS011;44389;51.578;5.456;2023-01-23T15:51:35;55.88;;;35.50;;
58621;SDS011;44389;51.578;5.456;2023-01-23T15:54:02;60.15;;;36.80;;
58621;SDS011;44389;51.578;5.456;2023-01-23T15:56:28;63.03;;;37.95;;
58621;SDS011;44389;51.578;5.456;2023-01-23T15:58:56;57.80;;;35.63;;
58621;SDS011;44389;51.578;5.456;2023-01-23T16:01:23;54.08;;;34.83;;
58621;SDS011;44389;51.578;5.456;2023-01-23T16:03:48;61.40;;;36.17;;
58621;SDS011;44389;51.578;5.456;2023-01-23T16:06:20;58.97;;;37.00;;
58621;SDS011;44389;51.578;5.456;2023-01-23T16:08:47;57.40;;;35.38;;
58621;SDS011;44389;51.578;5.456;2023-01-23T16:11:14;54.75;;;34.10;;
58621;SDS011;44389;51.578;5.456;2023-01-23T16:13:40;54.03;;;34.30;;
58621;SDS011;44389;51.578;5.456;2023-01-23T16:16:15;53.38;;;31.50;;
58621;SDS011;44389;51.578;5.456;2023-01-23T16:18:41;50.10;;;32.63;;